sensor_id;sensor_type;location;lat;lon;timestamp;P1;durP1;ratioP1;P2;durP2;ratioP2
13240;SDS011;6687;47.790;7.322;2022-09-12T06:12:44;0.73;;;0.73;;
13240;SDS011;6687;47.790;7.322;2022-09-12T06:15:11;1.65;;;0.77;;
13240;SDS011;6687;47.790;7.322;2022-09-12T06:17:38;0.57;;;0.57;;
13240;SDS011;6687;47.790;7.322;2022-09-12T06:20:05;1.70;;;0.60;;
13240;SDS011;6687;47.790;7.322;2022-09-12T06:22:32;0.50;;;0.50;;
13240;SDS011;6687;47.790;7.322;2022-09-12T06:24:59;0.45;;;0.45;;
13240;SDS011;6687;47.790;7.322;2022-09-12T06:27:26;0.82;;;0.40;;
13240;SDS011;6687;47.790;7.322;2022-09-12T06:29:54;0.52;;;0.52;;
13240;SDS011;6687;47.790;7.322;2022-09-12T06:32:21;0.32;;;0.32;;
13240;SDS011;6687;47.790;7.322;2022-09-12T06:34:47;0.30;;;0.30;;
13240;SDS011;6687;47.790;7.322;2022-09-12T06:37:14;0.70;;;0.52;;
13240;SDS011;6687;47.790;7.322;2022-09-12T06:39:41;0.55;;;0.40;;
13240;SDS011;6687;47.790;7.322;2022-09-12T06:42:08;1.02;;;0.73;;
13240;SDS011;6687;47.790;7.322;2022-09-12T06:44:36;0.50;;;0.50;;
13240;SDS011;6687;47.790;7.322;2022-09-12T06:47:04;0.68;;;0.50;;
13240;SDS011;6687;47.790;7.322;2022-09-12T06:49:31;0.35;;;0.35;;
13240;SDS011;6687;47.790;7.322;2022-09-12T06:51:58;0.40;;;0.40;;
13240;SDS011;6687;47.790;7.322;2022-09-12T06:54:25;0.60;;;0.60;;
13240;SDS011;6687;47.790;7.322;2022-09-12T06:56:52;0.65;;;0.52;;
13240;SDS011;6687;47.790;7.322;2022-09-12T06:59:18;0.77;;;0.57;;
13240;SDS011;6687;47.790;7.322;2022-09-12T07:01:45;0.85;;;0.55;;
13240;SDS011;6687;47.790;7.322;2022-09-12T07:04:13;0.95;;;0.90;;
13240;SDS011;6687;47.790;7.322;2022-09-12T07:06:40;0.50;;;0.40;;
13240;SDS011;6687;47.790;7.322;2022-09-12T07:09:09;0.73;;;0.73;;
13240;SDS011;6687;47.790;7.322;2022-09-12T07:11:38;0.68;;;0.68;;
13240;SDS011;6687;47.790;7.322;2022-09-12T07:14:08;0.55;;;0.52;;
13240;SDS011;6687;47.790;7.322;2022-09-12T07:16:37;0.45;;;0.40;;
13240;SDS011;6687;47.790;7.322;2022-09-12T07:19:04;0.70;;;0.70;;
13240;SDS011;6687;47.790;7.322;2022-09-12T07:21:33;0.95;;;0.65;;
13240;SDS011;6687;47.790;7.322;2022-09-12T07:24:03;0.40;;;0.40;;
13240;SDS011;6687;47.790;7.322;2022-09-12T07:26:30;0.32;;;0.32;;
13240;SDS011;6687;47.790;7.322;2022-09-12T07:28:57;0.40;;;0.40;;
13240;SDS011;6687;47.790;7.322;2022-09-12T07:31:24;1.23;;;0.50;;
13240;SDS011;6687;47.790;7.322;2022-09-12T07:33:52;0.55;;;0.55;;
13240;SDS011;6687;47.790;7.322;2022-09-12T07:36:20;0.45;;;0.45;;
13240;SDS011;6687;47.790;7.322;2022-09-12T07:38:53;0.22;;;0.22;;
13240;SDS011;6687;47.790;7.322;2022-09-12T07:41:22;0.43;;;0.43;;
13240;SDS011;6687;47.790;7.322;2022-09-12T07:43:50;0.40;;;0.40;;
13240;SDS011;6687;47.790;7.322;2022-09-12T07:46:18;0.20;;;0.20;;
13240;SDS011;6687;47.790;7.322;2022-09-12T07:48:48;0.30;;;0.30;;
13240;SDS011;6687;47.790;7.322;2022-09-12T07:51:16;0.30;;;0.30;;
13240;SDS011;6687;47.790;7.322;2022-09-12T07:53:44;0.43;;;0.43;;
13240;SDS011;6687;47.790;7.322;2022-09-12T07:56:13;0.40;;;0.40;;
13240;SDS011;6687;47.790;7.322;2022-09-12T07:58:41;0.30;;;0.30;;
13240;SDS011;6687;47.790;7.322;2022-09-12T08:01:11;0.68;;;0.60;;
13240;SDS011;6687;47.790;7.322;2022-09-12T08:03:39;0.50;;;0.50;;
13240;SDS011;6687;47.790;7.322;2022-09-12T08:06:06;0.30;;;0.30;;
13240;SDS011;6687;47.790;7.322;2022-09-12T08:08:34;0.57;;;0.40;;
13240;SDS011;6687;47.790;7.322;2022-09-12T08:11:03;0.70;;;0.65;;
13240;SDS011;6687;47.790;7.322;2022-09-12T08:13:34;0.65;;;0.65;;
13240;SDS011;6687;47.790;7.322;2022-09-12T08:16:02;0.30;;;0.30;;
13240;SDS011;6687;47.790;7.322;2022-09-12T08:18:31;0.95;;;0.60;;
13240;SDS011;6687;47.790;7.322;2022-09-12T08:20:58;0.17;;;0.17;;
13240;SDS011;6687;47.790;7.322;2022-09-12T08:23:26;1.92;;;0.47;;
13240;SDS011;6687;47.790;7.322;2022-09-12T08:25:56;0.70;;;0.40;;
13240;SDS011;6687;47.790;7.322;2022-09-12T08:28:24;0.40;;;0.40;;
13240;SDS011;6687;47.790;7.322;2022-09-12T08:30:52;0.50;;;0.50;;
13240;SDS011;6687;47.790;7.322;2022-09-12T08:33:20;0.47;;;0.47;;
13240;SDS011;6687;47.790;7.322;2022-09-12T08:35:46;0.43;;;0.40;;
13240;SDS011;6687;47.790;7.322;2022-09-12T08:38:13;0.47;;;0.30;;
13240;SDS011;6687;47.790;7.322;2022-09-12T08:40:43;0.50;;;0.40;;
13240;SDS011;6687;47.790;7.322;2022-09-12T08:43:18;0.40;;;0.40;;
13240;SDS011;6687;47.790;7.322;2022-09-12T08:46:00;0.80;;;0.60;;
13240;SDS011;6687;47.790;7.322;2022-09-12T08:48:33;1.35;;;0.40;;
13240;SDS011;6687;47.790;7.322;2022-09-12T08:51:01;0.57;;;0.57;;
13240;SDS011;6687;47.790;7.322;2022-09-12T08:53:29;1.05;;;0.47;;
13240;SDS011;6687;47.790;7.322;2022-09-12T08:56:00;0.40;;;0.40;;
13240;SDS011;6687;47.790;7.322;2022-09-12T08:58:28;0.57;;;0.57;;
13240;SDS011;6687;47.790;7.322;2022-09-12T09:01:04;0.60;;;0.60;;
13240;SDS011;6687;47.790;7.322;2022-09-12T09:03:46;0.60;;;0.60;;
13240;SDS011;6687;47.790;7.322;2022-09-12T09:06:48;0.70;;;0.70;;
13240;SDS011;6687;47.790;7.322;2022-09-12T09:09:25;2.30;;;1.00;;
13240;SDS011;6687;47.790;7.322;2022-09-12T09:12:06;0.68;;;0.68;;
13240;SDS011;6687;47.790;7.322;2022-09-12T09:17:48;0.50;;;0.50;;
13240;SDS011;6687;47.790;7.322;2022-09-12T09:20:21;1.00;;;0.73;;
13240;SDS011;6687;47.790;7.322;2022-09-12T09:22:54;1.10;;;0.80;;
13240;SDS011;6687;47.790;7.322;2022-09-12T09:25:25;0.80;;;0.80;;
13240;SDS011;6687;47.790;7.322;2022-09-12T09:28:03;0.82;;;0.60;;
13240;SDS011;6687;47.790;7.322;2022-09-12T09:30:32;0.52;;;0.52;;
13240;SDS011;6687;47.790;7.322;2022-09-12T09:33:02;1.63;;;0.70;;
13240;SDS011;6687;47.790;7.322;2022-09-12T09:35:36;0.73;;;0.73;;
13240;SDS011;6687;47.790;7.322;2022-09-12T09:38:13;0.40;;;0.40;;
13240;SDS011;6687;47.790;7.322;2022-09-12T09:40:50;0.50;;;0.50;;
13240;SDS011;6687;47.790;7.322;2022-09-12T09:43:25;0.40;;;0.40;;
13240;SDS011;6687;47.790;7.322;2022-09-12T09:45:53;0.60;;;0.60;;
13240;SDS011;6687;47.790;7.322;2022-09-12T09:48:23;0.80;;;0.80;;
13240;SDS011;6687;47.790;7.322;2022-09-12T09:50:55;0.35;;;0.35;;
13240;SDS011;6687;47.790;7.322;2022-09-12T09:53:30;0.70;;;0.70;;
13240;SDS011;6687;47.790;7.322;2022-09-12T09:56:03;0.80;;;0.80;;
13240;SDS011;6687;47.790;7.322;2022-09-12T09:58:34;0.95;;;0.52;;
13240;SDS011;6687;47.790;7.322;2022-09-12T10:01:02;0.80;;;0.80;;
13240;SDS011;6687;47.790;7.322;2022-09-12T10:03:32;1.20;;;1.08;;
13240;SDS011;6687;47.790;7.322;2022-09-12T10:06:05;0.60;;;0.60;;
13240;SDS011;6687;47.790;7.322;2022-09-12T10:08:47;1.23;;;1.13;;
13240;SDS011;6687;47.790;7.322;2022-09-12T10:11:16;0.80;;;0.57;;
13240;SDS011;6687;47.790;7.322;2022-09-12T10:13:51;0.77;;;0.57;;
13240;SDS011;6687;47.790;7.322;2022-09-12T10:16:21;0.60;;;0.60;;
13240;SDS011;6687;47.790;7.322;2022-09-12T10:18:51;0.60;;;0.50;;
13240;SDS011;6687;47.790;7.322;2022-09-12T10:21:20;0.80;;;0.80;;
13240;SDS011;6687;47.790;7.322;2022-09-12T10:23:57;0.60;;;0.60;;
13240;SDS011;6687;47.790;7.322;2022-09-12T10:26:31;0.43;;;0.43;;
13240;SDS011;6687;47.790;7.322;2022-09-12T10:29:02;1.25;;;0.80;;
13240;SDS011;6687;47.790;7.322;2022-09-12T10:31:41;0.68;;;0.40;;
13240;SDS011;6687;47.790;7.322;2022-09-12T10:34:19;2.05;;;0.70;;
13240;SDS011;6687;47.790;7.322;2022-09-12T10:36:50;1.15;;;1.05;;
13240;SDS011;6687;47.790;7.322;2022-09-12T10:39:19;1.48;;;1.38;;
13240;SDS011;6687;47.790;7.322;2022-09-12T10:41:46;0.70;;;0.70;;
13240;SDS011;6687;47.790;7.322;2022-09-12T10:44:14;1.17;;;1.00;;
13240;SDS011;6687;47.790;7.322;2022-09-12T10:46:42;1.85;;;1.50;;
13240;SDS011;6687;47.790;7.322;2022-09-12T10:51:56;0.80;;;0.80;;
13240;SDS011;6687;47.790;7.322;2022-09-12T10:54:41;0.70;;;0.63;;
13240;SDS011;6687;47.790;7.322;2022-09-12T11:00:14;0.50;;;0.50;;
13240;SDS011;6687;47.790;7.322;2022-09-12T11:02:47;0.93;;;0.77;;
13240;SDS011;6687;47.790;7.322;2022-09-12T11:05:21;0.70;;;0.70;;
13240;SDS011;6687;47.790;7.322;2022-09-12T11:08:10;0.68;;;0.68;;
13240;SDS011;6687;47.790;7.322;2022-09-12T11:10:46;0.80;;;0.50;;
13240;SDS011;6687;47.790;7.322;2022-09-12T11:13:24;1.17;;;0.57;;
13240;SDS011;6687;47.790;7.322;2022-09-12T11:16:15;0.57;;;0.57;;
13240;SDS011;6687;47.790;7.322;2022-09-12T11:18:57;0.35;;;0.35;;
13240;SDS011;6687;47.790;7.322;2022-09-12T11:21:41;0.73;;;0.73;;
13240;SDS011;6687;47.790;7.322;2022-09-12T11:24:27;0.30;;;0.30;;
13240;SDS011;6687;47.790;7.322;2022-09-12T11:27:11;0.40;;;0.40;;
13240;SDS011;6687;47.790;7.322;2022-09-12T11:29:51;0.30;;;0.30;;
13240;SDS011;6687;47.790;7.322;2022-09-12T11:35:32;0.40;;;0.40;;
13240;SDS011;6687;47.790;7.322;2022-09-12T11:38:17;0.50;;;0.50;;
13240;SDS011;6687;47.790;7.322;2022-09-12T11:41:14;0.40;;;0.40;;
13240;SDS011;6687;47.790;7.322;2022-09-12T11:43:47;0.40;;;0.40;;
13240;SDS011;6687;47.790;7.322;2022-09-12T11:46:19;0.47;;;0.47;;
13240;SDS011;6687;47.790;7.322;2022-09-12T11:48:51;0.28;;;0.28;;
13240;SDS011;6687;47.790;7.322;2022-09-12T11:51:24;0.50;;;0.50;;
13240;SDS011;6687;47.790;7.322;2022-09-12T11:56:46;0.40;;;0.40;;
13240;SDS011;6687;47.790;7.322;2022-09-12T11:59:17;0.60;;;0.60;;
13240;SDS011;6687;47.790;7.322;2022-09-12T12:01:57;1.85;;;0.47;;
13240;SDS011;6687;47.790;7.322;2022-09-12T12:04:26;0.43;;;0.43;;
13240;SDS011;6687;47.790;7.322;2022-09-12T12:07:00;0.40;;;0.40;;
13240;SDS011;6687;47.790;7.322;2022-09-12T12:09:31;0.20;;;0.20;;
13240;SDS011;6687;47.790;7.322;2022-09-12T12:11:59;0.32;;;0.30;;
13240;SDS011;6687;47.790;7.322;2022-09-12T12:14:31;0.40;;;0.40;;
13240;SDS011;6687;47.790;7.322;2022-09-12T12:17:03;0.20;;;0.20;;
13240;SDS011;6687;47.790;7.322;2022-09-12T12:19:37;0.30;;;0.30;;
13240;SDS011;6687;47.790;7.322;2022-09-12T12:22:05;0.25;;;0.25;;
13240;SDS011;6687;47.790;7.322;2022-09-12T12:24:34;0.38;;;0.30;;
13240;SDS011;6687;47.790;7.322;2022-09-12T12:27:23;0.30;;;0.30;;
13240;SDS011;6687;47.790;7.322;2022-09-12T12:36:35;0.30;;;0.30;;
13240;SDS011;6687;47.790;7.322;2022-09-12T12:48:43;0.20;;;0.20;;
13240;SDS011;6687;47.790;7.322;2022-09-12T12:51:25;0.30;;;0.30;;
13240;SDS011;6687;47.790;7.322;2022-09-12T12:53:56;0.30;;;0.30;;
13240;SDS011;6687;47.790;7.322;2022-09-12T12:56:27;0.52;;;0.47;;
13240;SDS011;6687;47.790;7.322;2022-09-12T12:58:59;0.63;;;0.40;;
13240;SDS011;6687;47.790;7.322;2022-09-12T13:01:30;0.28;;;0.28;;
13240;SDS011;6687;47.790;7.322;2022-09-12T13:04:04;0.20;;;0.20;;
13240;SDS011;6687;47.790;7.322;2022-09-12T13:06:39;0.40;;;0.40;;
13240;SDS011;6687;47.790;7.322;2022-09-12T13:09:16;0.50;;;0.30;;
13240;SDS011;6687;47.790;7.322;2022-09-12T13:11:47;1.02;;;0.20;;
13240;SDS011;6687;47.790;7.322;2022-09-12T13:14:33;0.20;;;0.20;;
13240;SDS011;6687;47.790;7.322;2022-09-12T13:17:04;0.30;;;0.30;;
13240;SDS011;6687;47.790;7.322;2022-09-12T13:19:35;0.38;;;0.38;;
13240;SDS011;6687;47.790;7.322;2022-09-12T13:22:03;0.30;;;0.30;;
13240;SDS011;6687;47.790;7.322;2022-09-12T13:24:31;0.45;;;0.30;;
13240;SDS011;6687;47.790;7.322;2022-09-12T13:26:58;0.30;;;0.30;;
13240;SDS011;6687;47.790;7.322;2022-09-12T13:29:26;0.30;;;0.30;;
13240;SDS011;6687;47.790;7.322;2022-09-12T13:31:54;0.30;;;0.30;;
13240;SDS011;6687;47.790;7.322;2022-09-12T13:34:25;0.20;;;0.20;;
13240;SDS011;6687;47.790;7.322;2022-09-12T13:40:02;1.35;;;0.35;;
13240;SDS011;6687;47.790;7.322;2022-09-12T13:42:41;0.40;;;0.40;;
13240;SDS011;6687;47.790;7.322;2022-09-12T13:45:13;0.30;;;0.30;;
13240;SDS011;6687;47.790;7.322;2022-09-12T13:47:45;0.20;;;0.20;;
13240;SDS011;6687;47.790;7.322;2022-09-12T13:50:16;0.30;;;0.30;;
13240;SDS011;6687;47.790;7.322;2022-09-12T13:52:47;0.30;;;0.30;;
13240;SDS011;6687;47.790;7.322;2022-09-12T13:55:27;0.30;;;0.30;;
13240;SDS011;6687;47.790;7.322;2022-09-12T13:57:57;0.63;;;0.32;;
13240;SDS011;6687;47.790;7.322;2022-09-12T14:00:25;0.20;;;0.20;;
13240;SDS011;6687;47.790;7.322;2022-09-12T14:02:56;0.40;;;0.15;;
13240;SDS011;6687;47.790;7.322;2022-09-12T14:05:39;0.35;;;0.30;;
13240;SDS011;6687;47.790;7.322;2022-09-12T14:08:09;0.20;;;0.20;;
13240;SDS011;6687;47.790;7.322;2022-09-12T14:10:38;0.20;;;0.20;;
13240;SDS011;6687;47.790;7.322;2022-09-12T14:13:09;0.50;;;0.30;;
13240;SDS011;6687;47.790;7.322;2022-09-12T14:15:37;0.20;;;0.20;;
13240;SDS011;6687;47.790;7.322;2022-09-12T14:18:18;0.20;;;0.20;;
13240;SDS011;6687;47.790;7.322;2022-09-12T14:20:50;0.30;;;0.30;;
13240;SDS011;6687;47.790;7.322;2022-09-12T14:23:20;0.43;;;0.43;;
13240;SDS011;6687;47.790;7.322;2022-09-12T14:25:51;0.22;;;0.22;;
13240;SDS011;6687;47.790;7.322;2022-09-12T14:28:20;0.30;;;0.30;;
13240;SDS011;6687;47.790;7.322;2022-09-12T14:30:58;0.10;;;0.10;;
13240;SDS011;6687;47.790;7.322;2022-09-12T14:33:27;0.43;;;0.30;;
13240;SDS011;6687;47.790;7.322;2022-09-12T14:36:07;0.70;;;0.20;;
13240;SDS011;6687;47.790;7.322;2022-09-12T14:38:39;2.20;;;0.30;;
13240;SDS011;6687;47.790;7.322;2022-09-12T14:41:08;0.47;;;0.20;;
13240;SDS011;6687;47.790;7.322;2022-09-12T14:43:37;0.22;;;0.22;;
13240;SDS011;6687;47.790;7.322;2022-09-12T14:46:13;0.20;;;0.20;;
13240;SDS011;6687;47.790;7.322;2022-09-12T14:48:45;0.20;;;0.20;;
13240;SDS011;6687;47.790;7.322;2022-09-12T14:51:18;0.20;;;0.20;;
13240;SDS011;6687;47.790;7.322;2022-09-12T14:53:48;0.40;;;0.40;;
13240;SDS011;6687;47.790;7.322;2022-09-12T14:56:15;0.20;;;0.20;;
13240;SDS011;6687;47.790;7.322;2022-09-12T14:58:45;0.35;;;0.20;;
13240;SDS011;6687;47.790;7.322;2022-09-12T15:03:56;0.40;;;0.10;;
13240;SDS011;6687;47.790;7.322;2022-09-12T15:06:26;0.63;;;0.28;;
13240;SDS011;6687;47.790;7.322;2022-09-12T15:08:54;0.30;;;0.30;;
13240;SDS011;6687;47.790;7.322;2022-09-12T15:11:23;0.20;;;0.20;;
13240;SDS011;6687;47.790;7.322;2022-09-12T15:13:50;0.20;;;0.20;;
13240;SDS011;6687;47.790;7.322;2022-09-12T15:16:17;0.20;;;0.20;;
13240;SDS011;6687;47.790;7.322;2022-09-12T15:18:43;0.63;;;0.40;;
13240;SDS011;6687;47.790;7.322;2022-09-12T15:21:11;0.15;;;0.15;;
13240;SDS011;6687;47.790;7.322;2022-09-12T15:23:43;0.10;;;0.10;;
13240;SDS011;6687;47.790;7.322;2022-09-12T15:26:13;0.40;;;0.40;;
13240;SDS011;6687;47.790;7.322;2022-09-12T15:28:41;0.20;;;0.20;;
13240;SDS011;6687;47.790;7.322;2022-09-12T15:31:10;0.20;;;0.20;;
13240;SDS011;6687;47.790;7.322;2022-09-12T15:33:40;0.30;;;0.30;;
13240;SDS011;6687;47.790;7.322;2022-09-12T15:36:12;0.10;;;0.10;;
13240;SDS011;6687;47.790;7.322;2022-09-12T15:38:43;0.17;;;0.17;;
13240;SDS011;6687;47.790;7.322;2022-09-12T15:41:12;0.20;;;0.20;;
13240;SDS011;6687;47.790;7.322;2022-09-12T15:43:42;0.20;;;0.20;;
13240;SDS011;6687;47.790;7.322;2022-09-12T15:46:09;0.20;;;0.20;;
13240;SDS011;6687;47.790;7.322;2022-09-12T15:48:36;0.20;;;0.20;;
13240;SDS011;6687;47.790;7.322;2022-09-12T15:51:03;0.20;;;0.20;;
13240;SDS011;6687;47.790;7.322;2022-09-12T15:53:30;0.20;;;0.20;;
13240;SDS011;6687;47.790;7.322;2022-09-12T15:55:58;0.30;;;0.20;;
13240;SDS011;6687;47.790;7.322;2022-09-12T15:58:25;0.10;;;0.10;;
13240;SDS011;6687;47.790;7.322;2022-09-12T16:00:51;0.10;;;0.10;;
13240;SDS011;6687;47.790;7.322;2022-09-12T16:03:19;0.10;;;0.10;;
13240;SDS011;6687;47.790;7.322;2022-09-12T16:05:48;0.20;;;0.20;;
13240;SDS011;6687;47.790;7.322;2022-09-12T16:08:15;0.55;;;0.20;;
13240;SDS011;6687;47.790;7.322;2022-09-12T16:10:41;0.47;;;0.20;;
13240;SDS011;6687;47.790;7.322;2022-09-12T16:13:10;0.20;;;0.20;;
13240;SDS011;6687;47.790;7.322;2022-09-12T16:15:36;0.13;;;0.13;;
13240;SDS011;6687;47.790;7.322;2022-09-12T16:18:03;0.20;;;0.20;;
13240;SDS011;6687;47.790;7.322;2022-09-12T16:20:30;0.20;;;0.20;;
13240;SDS011;6687;47.790;7.322;2022-09-12T16:22:56;0.30;;;0.30;;
13240;SDS011;6687;47.790;7.322;2022-09-12T16:25:23;0.20;;;0.20;;
13240;SDS011;6687;47.790;7.322;2022-09-12T16:27:50;0.35;;;0.20;;
13240;SDS011;6687;47.790;7.322;2022-09-12T16:30:18;0.40;;;0.40;;
13240;SDS011;6687;47.790;7.322;2022-09-12T16:32:45;0.22;;;0.22;;
13240;SDS011;6687;47.790;7.322;2022-09-12T16:35:12;0.47;;;0.20;;
13240;SDS011;6687;47.790;7.322;2022-09-12T16:37:38;0.03;;;0.03;;
13240;SDS011;6687;47.790;7.322;2022-09-12T16:40:06;0.20;;;0.20;;
13240;SDS011;6687;47.790;7.322;2022-09-12T16:42:33;0.20;;;0.20;;
13240;SDS011;6687;47.790;7.322;2022-09-12T16:45:00;1.02;;;0.30;;
13240;SDS011;6687;47.790;7.322;2022-09-12T16:47:28;0.88;;;0.55;;
13240;SDS011;6687;47.790;7.322;2022-09-12T16:49:56;1.10;;;0.30;;
13240;SDS011;6687;47.790;7.322;2022-09-12T16:52:23;1.40;;;0.45;;
13240;SDS011;6687;47.790;7.322;2022-09-12T16:54:50;0.30;;;0.20;;
13240;SDS011;6687;47.790;7.322;2022-09-12T16:57:17;0.30;;;0.30;;
13240;SDS011;6687;47.790;7.322;2022-09-12T16:59:43;0.30;;;0.20;;
13240;SDS011;6687;47.790;7.322;2022-09-12T17:02:11;0.32;;;0.28;;
13240;SDS011;6687;47.790;7.322;2022-09-12T17:04:39;0.32;;;0.32;;
13240;SDS011;6687;47.790;7.322;2022-09-12T17:07:06;0.22;;;0.22;;
13240;SDS011;6687;47.790;7.322;2022-09-12T17:09:34;0.52;;;0.20;;
13240;SDS011;6687;47.790;7.322;2022-09-12T17:12:01;0.20;;;0.20;;
13240;SDS011;6687;47.790;7.322;2022-09-12T17:14:28;0.15;;;0.15;;
13240;SDS011;6687;47.790;7.322;2022-09-12T17:16:54;0.30;;;0.30;;
13240;SDS011;6687;47.790;7.322;2022-09-12T17:19:22;0.77;;;0.25;;
13240;SDS011;6687;47.790;7.322;2022-09-12T17:21:51;0.22;;;0.22;;
13240;SDS011;6687;47.790;7.322;2022-09-12T17:24:18;0.10;;;0.10;;
13240;SDS011;6687;47.790;7.322;2022-09-12T17:26:47;1.02;;;0.20;;
13240;SDS011;6687;47.790;7.322;2022-09-12T17:29:14;0.00;;;0.00;;
13240;SDS011;6687;47.790;7.322;2022-09-12T17:31:42;0.20;;;0.20;;
13240;SDS011;6687;47.790;7.322;2022-09-12T17:34:10;0.17;;;0.17;;
13240;SDS011;6687;47.790;7.322;2022-09-12T17:36:38;0.10;;;0.10;;
13240;SDS011;6687;47.790;7.322;2022-09-12T17:39:09;0.10;;;0.10;;
13240;SDS011;6687;47.790;7.322;2022-09-12T17:41:36;0.25;;;0.20;;
13240;SDS011;6687;47.790;7.322;2022-09-12T17:44:04;0.47;;;0.20;;
13240;SDS011;6687;47.790;7.322;2022-09-12T17:46:33;0.20;;;0.20;;
13240;SDS011;6687;47.790;7.322;2022-09-12T17:49:02;0.20;;;0.20;;
13240;SDS011;6687;47.790;7.322;2022-09-12T17:51:30;0.20;;;0.20;;
13240;SDS011;6687;47.790;7.322;2022-09-12T17:53:57;0.70;;;0.20;;
13240;SDS011;6687;47.790;7.322;2022-09-12T17:56:26;0.10;;;0.10;;
13240;SDS011;6687;47.790;7.322;2022-09-12T17:58:54;0.22;;;0.20;;
13240;SDS011;6687;47.790;7.322;2022-09-12T18:01:21;0.20;;;0.17;;
13240;SDS011;6687;47.790;7.322;2022-09-12T18:04:06;1.95;;;0.32;;
13240;SDS011;6687;47.790;7.322;2022-09-12T18:06:32;0.40;;;0.40;;
13240;SDS011;6687;47.790;7.322;2022-09-12T18:08:59;0.30;;;0.30;;
13240;SDS011;6687;47.790;7.322;2022-09-12T18:11:28;0.30;;;0.30;;
13240;SDS011;6687;47.790;7.322;2022-09-12T18:13:56;0.13;;;0.10;;
13240;SDS011;6687;47.790;7.322;2022-09-12T18:16:23;0.55;;;0.55;;
13240;SDS011;6687;47.790;7.322;2022-09-12T18:18:50;1.05;;;0.30;;
13240;SDS011;6687;47.790;7.322;2022-09-12T18:21:17;3.03;;;0.50;;
13240;SDS011;6687;47.790;7.322;2022-09-12T18:23:44;0.82;;;0.30;;
13240;SDS011;6687;47.790;7.322;2022-09-12T18:26:12;0.38;;;0.38;;
13240;SDS011;6687;47.790;7.322;2022-09-12T18:28:41;0.52;;;0.50;;
13240;SDS011;6687;47.790;7.322;2022-09-12T18:31:09;0.38;;;0.38;;
13240;SDS011;6687;47.790;7.322;2022-09-12T18:33:37;0.43;;;0.40;;
13240;SDS011;6687;47.790;7.322;2022-09-12T18:36:04;0.75;;;0.68;;
13240;SDS011;6687;47.790;7.322;2022-09-12T18:38:32;0.40;;;0.40;;
13240;SDS011;6687;47.790;7.322;2022-09-12T18:41:00;0.63;;;0.43;;
13240;SDS011;6687;47.790;7.322;2022-09-12T18:43:27;0.38;;;0.38;;
13240;SDS011;6687;47.790;7.322;2022-09-12T18:45:55;0.65;;;0.30;;
13240;SDS011;6687;47.790;7.322;2022-09-12T18:48:22;0.70;;;0.38;;
13240;SDS011;6687;47.790;7.322;2022-09-12T18:50:49;0.40;;;0.40;;
13240;SDS011;6687;47.790;7.322;2022-09-12T18:53:16;0.70;;;0.50;;
13240;SDS011;6687;47.790;7.322;2022-09-12T18:55:43;0.47;;;0.47;;
13240;SDS011;6687;47.790;7.322;2022-09-12T18:58:10;0.50;;;0.50;;
13240;SDS011;6687;47.790;7.322;2022-09-12T19:00:37;1.20;;;0.73;;
13240;SDS011;6687;47.790;7.322;2022-09-12T19:03:06;0.90;;;0.50;;
13240;SDS011;6687;47.790;7.322;2022-09-12T19:05:32;0.50;;;0.50;;
13240;SDS011;6687;47.790;7.322;2022-09-12T19:08:00;0.80;;;0.35;;
13240;SDS011;6687;47.790;7.322;2022-09-12T19:10:27;2.38;;;0.60;;
13240;SDS011;6687;47.790;7.322;2022-09-12T19:12:55;1.17;;;0.40;;
13240;SDS011;6687;47.790;7.322;2022-09-12T19:15:21;0.63;;;0.60;;
13240;SDS011;6687;47.790;7.322;2022-09-12T19:17:48;0.95;;;0.55;;
13240;SDS011;6687;47.790;7.322;2022-09-12T19:20:16;0.30;;;0.30;;
13240;SDS011;6687;47.790;7.322;2022-09-12T19:22:43;0.50;;;0.50;;
13240;SDS011;6687;47.790;7.322;2022-09-12T19:25:10;0.22;;;0.20;;
13240;SDS011;6687;47.790;7.322;2022-09-12T19:27:36;0.50;;;0.50;;
13240;SDS011;6687;47.790;7.322;2022-09-12T19:30:03;0.40;;;0.40;;
13240;SDS011;6687;47.790;7.322;2022-09-12T19:32:31;0.40;;;0.40;;
13240;SDS011;6687;47.790;7.322;2022-09-12T19:34:57;0.45;;;0.32;;
13240;SDS011;6687;47.790;7.322;2022-09-12T19:37:26;0.40;;;0.40;;
13240;SDS011;6687;47.790;7.322;2022-09-12T19:39:54;0.40;;;0.40;;
13240;SDS011;6687;47.790;7.322;2022-09-12T19:42:21;1.10;;;0.30;;
13240;SDS011;6687;47.790;7.322;2022-09-12T19:44:48;0.57;;;0.50;;
13240;SDS011;6687;47.790;7.322;2022-09-12T19:47:19;0.52;;;0.50;;
13240;SDS011;6687;47.790;7.322;2022-09-12T19:49:46;0.20;;;0.20;;
13240;SDS011;6687;47.790;7.322;2022-09-12T19:52:13;0.30;;;0.30;;
13240;SDS011;6687;47.790;7.322;2022-09-12T19:54:41;0.47;;;0.47;;
13240;SDS011;6687;47.790;7.322;2022-09-12T19:57:07;0.43;;;0.43;;
13240;SDS011;6687;47.790;7.322;2022-09-12T19:59:34;1.05;;;0.57;;
13240;SDS011;6687;47.790;7.322;2022-09-12T20:02:01;0.80;;;0.50;;
13240;SDS011;6687;47.790;7.322;2022-09-12T20:04:27;0.32;;;0.32;;
13240;SDS011;6687;47.790;7.322;2022-09-12T20:06:56;0.90;;;0.65;;
13240;SDS011;6687;47.790;7.322;2022-09-12T20:09:23;0.32;;;0.32;;
13240;SDS011;6687;47.790;7.322;2022-09-12T20:11:51;4.40;;;0.63;;
13240;SDS011;6687;47.790;7.322;2022-09-12T20:14:17;0.43;;;0.43;;
13240;SDS011;6687;47.790;7.322;2022-09-12T20:16:45;0.77;;;0.40;;
13240;SDS011;6687;47.790;7.322;2022-09-12T20:19:12;0.77;;;0.50;;
13240;SDS011;6687;47.790;7.322;2022-09-12T20:21:38;0.40;;;0.40;;
13240;SDS011;6687;47.790;7.322;2022-09-12T20:24:06;0.30;;;0.30;;
13240;SDS011;6687;47.790;7.322;2022-09-12T20:26:34;0.65;;;0.65;;
13240;SDS011;6687;47.790;7.322;2022-09-12T20:29:03;0.43;;;0.40;;
13240;SDS011;6687;47.790;7.322;2022-09-12T20:31:30;1.20;;;0.70;;
13240;SDS011;6687;47.790;7.322;2022-09-12T20:33:57;0.40;;;0.40;;
13240;SDS011;6687;47.790;7.322;2022-09-12T20:36:24;0.30;;;0.30;;
13240;SDS011;6687;47.790;7.322;2022-09-12T20:38:52;0.55;;;0.55;;
13240;SDS011;6687;47.790;7.322;2022-09-12T20:41:20;0.68;;;0.60;;
13240;SDS011;6687;47.790;7.322;2022-09-12T20:43:48;1.17;;;0.55;;
13240;SDS011;6687;47.790;7.322;2022-09-12T20:46:16;0.57;;;0.50;;
13240;SDS011;6687;47.790;7.322;2022-09-12T20:48:43;0.30;;;0.30;;
13240;SDS011;6687;47.790;7.322;2022-09-12T20:51:11;0.45;;;0.35;;
13240;SDS011;6687;47.790;7.322;2022-09-12T20:53:38;0.50;;;0.50;;
13240;SDS011;6687;47.790;7.322;2022-09-12T20:56:05;0.60;;;0.43;;
13240;SDS011;6687;47.790;7.322;2022-09-12T20:58:32;0.30;;;0.30;;
13240;SDS011;6687;47.790;7.322;2022-09-12T21:00:59;0.60;;;0.55;;
13240;SDS011;6687;47.790;7.322;2022-09-12T21:03:34;0.40;;;0.40;;
13240;SDS011;6687;47.790;7.322;2022-09-12T21:06:01;0.22;;;0.22;;
13240;SDS011;6687;47.790;7.322;2022-09-12T21:08:29;0.30;;;0.30;;
13240;SDS011;6687;47.790;7.322;2022-09-12T21:10:56;1.52;;;0.70;;
13240;SDS011;6687;47.790;7.322;2022-09-12T21:13:23;0.50;;;0.50;;
13240;SDS011;6687;47.790;7.322;2022-09-12T21:15:56;0.40;;;0.40;;
13240;SDS011;6687;47.790;7.322;2022-09-12T21:18:23;0.60;;;0.57;;
13240;SDS011;6687;47.790;7.322;2022-09-12T21:20:52;0.75;;;0.60;;
13240;SDS011;6687;47.790;7.322;2022-09-12T21:23:19;0.47;;;0.47;;
13240;SDS011;6687;47.790;7.322;2022-09-12T21:25:47;1.77;;;0.47;;
13240;SDS011;6687;47.790;7.322;2022-09-12T21:28:14;0.40;;;0.30;;
13240;SDS011;6687;47.790;7.322;2022-09-12T21:30:41;1.00;;;0.50;;
13240;SDS011;6687;47.790;7.322;2022-09-12T21:33:09;0.93;;;0.50;;
13240;SDS011;6687;47.790;7.322;2022-09-12T21:35:36;0.55;;;0.55;;
13240;SDS011;6687;47.790;7.322;2022-09-12T21:38:04;1.15;;;0.38;;
13240;SDS011;6687;47.790;7.322;2022-09-12T21:40:31;0.43;;;0.43;;
13240;SDS011;6687;47.790;7.322;2022-09-12T21:42:58;0.63;;;0.40;;
13240;SDS011;6687;47.790;7.322;2022-09-12T21:45:25;0.90;;;0.55;;
13240;SDS011;6687;47.790;7.322;2022-09-12T21:47:51;0.43;;;0.40;;
13240;SDS011;6687;47.790;7.322;2022-09-12T21:50:18;1.40;;;0.60;;
13240;SDS011;6687;47.790;7.322;2022-09-12T21:52:45;0.40;;;0.40;;
13240;SDS011;6687;47.790;7.322;2022-09-12T21:55:13;0.35;;;0.35;;
13240;SDS011;6687;47.790;7.322;2022-09-12T21:57:40;0.40;;;0.40;;
13240;SDS011;6687;47.790;7.322;2022-09-12T22:00:07;0.30;;;0.30;;
13240;SDS011;6687;47.790;7.322;2022-09-12T22:02:38;1.30;;;0.80;;
13240;SDS011;6687;47.790;7.322;2022-09-12T22:05:04;0.35;;;0.35;;